sensor_id;sensor_type;location;lat;lon;timestamp;P1;durP1;ratioP1;P2;durP2;ratioP2
9563;SDS011;4820;50.870;4.702;2023-05-07T00:01:27;6.97;;;4.57;;
9563;SDS011;4820;50.870;4.702;2023-05-07T00:03:53;5.35;;;4.38;;
9563;SDS011;4820;50.870;4.702;2023-05-07T00:06:19;5.80;;;4.30;;
9563;SDS011;4820;50.870;4.702;2023-05-07T00:08:44;6.45;;;5.40;;
9563;SDS011;4820;50.870;4.702;2023-05-07T00:11:10;7.00;;;4.82;;
9563;SDS011;4820;50.870;4.702;2023-05-07T00:13:36;5.80;;;4.60;;
9563;SDS011;4820;50.870;4.702;2023-05-07T00:16:02;5.78;;;4.65;;
9563;SDS011;4820;50.870;4.702;2023-05-07T00:18:28;5.68;;;4.80;;
9563;SDS011;4820;50.870;4.702;2023-05-07T00:20:54;5.55;;;4.80;;
9563;SDS011;4820;50.870;4.702;2023-05-07T00:23:19;6.38;;;4.60;;
9563;SDS011;4820;50.870;4.702;2023-05-07T00:25:45;9.10;;;4.82;;
9563;SDS011;4820;50.870;4.702;2023-05-07T00:28:11;4.70;;;4.10;;
9563;SDS011;4820;50.870;4.702;2023-05-07T00:30:36;5.38;;;4.65;;
9563;SDS011;4820;50.870;4.702;2023-05-07T00:33:02;5.18;;;4.57;;
9563;SDS011;4820;50.870;4.702;2023-05-07T00:35:28;7.38;;;4.57;;
9563;SDS011;4820;50.870;4.702;2023-05-07T00:37:55;6.43;;;4.40;;
9563;SDS011;4820;50.870;4.702;2023-05-07T00:40:20;7.45;;;4.65;;
9563;SDS011;4820;50.870;4.702;2023-05-07T00:42:46;8.18;;;5.78;;
9563;SDS011;4820;50.870;4.702;2023-05-07T00:45:14;9.23;;;6.18;;
9563;SDS011;4820;50.870;4.702;2023-05-07T00:47:40;8.10;;;5.70;;
9563;SDS011;4820;50.870;4.702;2023-05-07T00:50:06;6.22;;;5.57;;
9563;SDS011;4820;50.870;4.702;2023-05-07T00:52:34;5.45;;;4.47;;
9563;SDS011;4820;50.870;4.702;2023-05-07T00:55:05;5.95;;;5.35;;
9563;SDS011;4820;50.870;4.702;2023-05-07T00:57:32;6.75;;;6.13;;
9563;SDS011;4820;50.870;4.702;2023-05-07T01:00:06;9.88;;;6.72;;
9563;SDS011;4820;50.870;4.702;2023-05-07T01:02:34;7.22;;;6.53;;
9563;SDS011;4820;50.870;4.702;2023-05-07T01:05:00;8.00;;;6.55;;
9563;SDS011;4820;50.870;4.702;2023-05-07T01:07:28;8.02;;;5.90;;
9563;SDS011;4820;50.870;4.702;2023-05-07T01:09:55;6.53;;;5.93;;
9563;SDS011;4820;50.870;4.702;2023-05-07T01:12:21;7.03;;;6.22;;
9563;SDS011;4820;50.870;4.702;2023-05-07T01:14:48;6.72;;;6.03;;
9563;SDS011;4820;50.870;4.702;2023-05-07T01:17:16;8.05;;;6.20;;
9563;SDS011;4820;50.870;4.702;2023-05-07T01:19:42;7.10;;;5.80;;
9563;SDS011;4820;50.870;4.702;2023-05-07T01:22:09;7.22;;;5.55;;
9563;SDS011;4820;50.870;4.702;2023-05-07T01:24:36;7.63;;;5.70;;
9563;SDS011;4820;50.870;4.702;2023-05-07T01:27:03;10.00;;;5.88;;
9563;SDS011;4820;50.870;4.702;2023-05-07T01:29:29;8.30;;;6.47;;
9563;SDS011;4820;50.870;4.702;2023-05-07T01:31:59;7.05;;;6.35;;
9563;SDS011;4820;50.870;4.702;2023-05-07T01:34:25;7.95;;;6.22;;
9563;SDS011;4820;50.870;4.702;2023-05-07T01:36:55;8.18;;;6.07;;
9563;SDS011;4820;50.870;4.702;2023-05-07T01:39:26;9.00;;;8.10;;
9563;SDS011;4820;50.870;4.702;2023-05-07T01:41:54;8.18;;;6.82;;
9563;SDS011;4820;50.870;4.702;2023-05-07T01:44:21;8.27;;;6.95;;
9563;SDS011;4820;50.870;4.702;2023-05-07T01:46:47;7.93;;;6.40;;
9563;SDS011;4820;50.870;4.702;2023-05-07T01:49:14;7.95;;;6.72;;
9563;SDS011;4820;50.870;4.702;2023-05-07T01:51:41;6.57;;;5.90;;
9563;SDS011;4820;50.870;4.702;2023-05-07T01:54:07;8.00;;;6.50;;
9563;SDS011;4820;50.870;4.702;2023-05-07T01:56:33;7.80;;;6.45;;
9563;SDS011;4820;50.870;4.702;2023-05-07T01:58:59;7.97;;;6.70;;
9563;SDS011;4820;50.870;4.702;2023-05-07T02:01:24;7.80;;;6.28;;
9563;SDS011;4820;50.870;4.702;2023-05-07T02:03:50;5.93;;;5.32;;
9563;SDS011;4820;50.870;4.702;2023-05-07T02:06:16;7.82;;;5.43;;
9563;SDS011;4820;50.870;4.702;2023-05-07T02:08:42;7.65;;;5.90;;
9563;SDS011;4820;50.870;4.702;2023-05-07T02:11:07;9.40;;;6.32;;
9563;SDS011;4820;50.870;4.702;2023-05-07T02:13:33;8.32;;;6.70;;
9563;SDS011;4820;50.870;4.702;2023-05-07T02:16:00;6.57;;;5.95;;
9563;SDS011;4820;50.870;4.702;2023-05-07T02:18:25;7.63;;;6.25;;
9563;SDS011;4820;50.870;4.702;2023-05-07T02:20:51;7.95;;;6.53;;
9563;SDS011;4820;50.870;4.702;2023-05-07T02:23:17;7.30;;;6.60;;
9563;SDS011;4820;50.870;4.702;2023-05-07T02:25:43;10.30;;;6.45;;
9563;SDS011;4820;50.870;4.702;2023-05-07T02:28:08;8.70;;;7.80;;
9563;SDS011;4820;50.870;4.702;2023-05-07T02:30:34;10.40;;;8.43;;
9563;SDS011;4820;50.870;4.702;2023-05-07T02:33:01;9.65;;;8.65;;
9563;SDS011;4820;50.870;4.702;2023-05-07T02:35:27;8.98;;;8.13;;
9563;SDS011;4820;50.870;4.702;2023-05-07T02:37:53;10.07;;;9.05;;
9563;SDS011;4820;50.870;4.702;2023-05-07T02:40:19;11.40;;;8.95;;
9563;SDS011;4820;50.870;4.702;2023-05-07T02:42:44;10.32;;;8.80;;
9563;SDS011;4820;50.870;4.702;2023-05-07T02:45:10;8.68;;;7.88;;
9563;SDS011;4820;50.870;4.702;2023-05-07T02:47:36;9.30;;;8.35;;
9563;SDS011;4820;50.870;4.702;2023-05-07T02:50:02;8.95;;;7.75;;
9563;SDS011;4820;50.870;4.702;2023-05-07T02:52:28;8.10;;;7.30;;
9563;SDS011;4820;50.870;4.702;2023-05-07T02:54:54;9.80;;;7.95;;
9563;SDS011;4820;50.870;4.702;2023-05-07T02:57:20;9.25;;;7.88;;
9563;SDS011;4820;50.870;4.702;2023-05-07T02:59:45;9.13;;;8.23;;
9563;SDS011;4820;50.870;4.702;2023-05-07T03:02:11;9.13;;;8.23;;
9563;SDS011;4820;50.870;4.702;2023-05-07T03:04:37;9.32;;;8.38;;
9563;SDS011;4820;50.870;4.702;2023-05-07T03:07:03;13.95;;;9.25;;
9563;SDS011;4820;50.870;4.702;2023-05-07T03:09:29;9.13;;;8.25;;
9563;SDS011;4820;50.870;4.702;2023-05-07T03:11:56;9.80;;;8.63;;
9563;SDS011;4820;50.870;4.702;2023-05-07T03:14:21;10.07;;;8.70;;
9563;SDS011;4820;50.870;4.702;2023-05-07T03:16:47;10.45;;;8.93;;
9563;SDS011;4820;50.870;4.702;2023-05-07T03:19:13;9.70;;;8.70;;
9563;SDS011;4820;50.870;4.702;2023-05-07T03:21:39;9.48;;;8.48;;
9563;SDS011;4820;50.870;4.702;2023-05-07T03:24:05;9.90;;;7.05;;
9563;SDS011;4820;50.870;4.702;2023-05-07T03:26:31;8.48;;;6.65;;
9563;SDS011;4820;50.870;4.702;2023-05-07T03:28:56;7.30;;;6.57;;
9563;SDS011;4820;50.870;4.702;2023-05-07T03:31:22;7.82;;;5.95;;
9563;SDS011;4820;50.870;4.702;2023-05-07T03:36:20;6.35;;;5.72;;
9563;SDS011;4820;50.870;4.702;2023-05-07T03:38:47;6.20;;;5.60;;
9563;SDS011;4820;50.870;4.702;2023-05-07T03:41:13;5.80;;;5.20;;
9563;SDS011;4820;50.870;4.702;2023-05-07T03:43:39;7.07;;;5.10;;
9563;SDS011;4820;50.870;4.702;2023-05-07T03:46:05;6.13;;;4.90;;
9563;SDS011;4820;50.870;4.702;2023-05-07T03:48:31;6.05;;;5.55;;
9563;SDS011;4820;50.870;4.702;2023-05-07T03:50:59;7.60;;;5.90;;
9563;SDS011;4820;50.870;4.702;2023-05-07T03:53:25;7.28;;;5.82;;
9563;SDS011;4820;50.870;4.702;2023-05-07T03:55:51;7.07;;;5.00;;
9563;SDS011;4820;50.870;4.702;2023-05-07T03:58:16;5.40;;;4.75;;
9563;SDS011;4820;50.870;4.702;2023-05-07T04:00:42;7.18;;;5.13;;
9563;SDS011;4820;50.870;4.702;2023-05-07T04:03:08;5.47;;;4.65;;
9563;SDS011;4820;50.870;4.702;2023-05-07T04:05:33;8.07;;;5.05;;
9563;SDS011;4820;50.870;4.702;2023-05-07T04:07:59;7.10;;;5.05;;
9563;SDS011;4820;50.870;4.702;2023-05-07T04:10:26;8.00;;;5.28;;
9563;SDS011;4820;50.870;4.702;2023-05-07T04:12:53;7.15;;;5.38;;
9563;SDS011;4820;50.870;4.702;2023-05-07T04:15:19;7.18;;;5.03;;
9563;SDS011;4820;50.870;4.702;2023-05-07T04:17:44;6.55;;;5.18;;
9563;SDS011;4820;50.870;4.702;2023-05-07T04:20:13;6.55;;;5.70;;
9563;SDS011;4820;50.870;4.702;2023-05-07T04:22:40;6.45;;;5.55;;
9563;SDS011;4820;50.870;4.702;2023-05-07T04:25:06;6.57;;;5.97;;
9563;SDS011;4820;50.870;4.702;2023-05-07T04:27:34;7.00;;;5.28;;
9563;SDS011;4820;50.870;4.702;2023-05-07T04:30:00;7.32;;;5.80;;
9563;SDS011;4820;50.870;4.702;2023-05-07T04:32:27;8.25;;;7.15;;
9563;SDS011;4820;50.870;4.702;2023-05-07T04:34:54;8.45;;;7.65;;
9563;SDS011;4820;50.870;4.702;2023-05-07T04:37:20;9.55;;;8.52;;
9563;SDS011;4820;50.870;4.702;2023-05-07T04:39:46;9.00;;;8.15;;
9563;SDS011;4820;50.870;4.702;2023-05-07T04:42:16;9.02;;;7.55;;
9563;SDS011;4820;50.870;4.702;2023-05-07T04:44:43;9.70;;;8.75;;
9563;SDS011;4820;50.870;4.702;2023-05-07T04:47:10;10.40;;;9.43;;
9563;SDS011;4820;50.870;4.702;2023-05-07T04:49:36;9.68;;;8.65;;
9563;SDS011;4820;50.870;4.702;2023-05-07T04:52:03;8.95;;;8.05;;
9563;SDS011;4820;50.870;4.702;2023-05-07T04:54:29;8.65;;;7.85;;
9563;SDS011;4820;50.870;4.702;2023-05-07T04:56:54;10.20;;;9.30;;
9563;SDS011;4820;50.870;4.702;2023-05-07T04:59:20;10.10;;;9.10;;
9563;SDS011;4820;50.870;4.702;2023-05-07T05:01:46;11.55;;;10.45;;
9563;SDS011;4820;50.870;4.702;2023-05-07T05:04:12;12.32;;;11.00;;
9563;SDS011;4820;50.870;4.702;2023-05-07T05:06:38;12.13;;;10.68;;
9563;SDS011;4820;50.870;4.702;2023-05-07T05:09:04;13.32;;;12.00;;
9563;SDS011;4820;50.870;4.702;2023-05-07T05:11:30;13.98;;;12.73;;
9563;SDS011;4820;50.870;4.702;2023-05-07T05:13:56;15.90;;;13.40;;
9563;SDS011;4820;50.870;4.702;2023-05-07T05:16:22;13.35;;;12.15;;
9563;SDS011;4820;50.870;4.702;2023-05-07T05:18:48;13.85;;;12.55;;
9563;SDS011;4820;50.870;4.702;2023-05-07T05:21:13;14.77;;;13.38;;
9563;SDS011;4820;50.870;4.702;2023-05-07T05:23:39;14.88;;;13.48;;
9563;SDS011;4820;50.870;4.702;2023-05-07T05:26:05;14.63;;;13.23;;
9563;SDS011;4820;50.870;4.702;2023-05-07T05:28:30;14.55;;;13.10;;
9563;SDS011;4820;50.870;4.702;2023-05-07T05:30:56;13.75;;;12.45;;
9563;SDS011;4820;50.870;4.702;2023-05-07T05:33:22;14.52;;;13.15;;
9563;SDS011;4820;50.870;4.702;2023-05-07T05:35:47;13.80;;;11.88;;
9563;SDS011;4820;50.870;4.702;2023-05-07T05:38:14;12.82;;;11.52;;
9563;SDS011;4820;50.870;4.702;2023-05-07T05:40:40;13.05;;;11.85;;
9563;SDS011;4820;50.870;4.702;2023-05-07T05:43:05;11.55;;;10.35;;
9563;SDS011;4820;50.870;4.702;2023-05-07T05:45:31;12.02;;;10.82;;
9563;SDS011;4820;50.870;4.702;2023-05-07T05:47:57;10.55;;;9.65;;
9563;SDS011;4820;50.870;4.702;2023-05-07T05:50:22;11.20;;;10.15;;
9563;SDS011;4820;50.870;4.702;2023-05-07T05:52:48;11.65;;;10.65;;
9563;SDS011;4820;50.870;4.702;2023-05-07T05:55:14;12.43;;;11.13;;
9563;SDS011;4820;50.870;4.702;2023-05-07T05:57:39;10.32;;;9.43;;
9563;SDS011;4820;50.870;4.702;2023-05-07T06:00:06;10.90;;;9.80;;
9563;SDS011;4820;50.870;4.702;2023-05-07T06:02:33;10.20;;;9.20;;
9563;SDS011;4820;50.870;4.702;2023-05-07T06:04:58;10.48;;;9.48;;
9563;SDS011;4820;50.870;4.702;2023-05-07T06:07:24;9.73;;;8.82;;
9563;SDS011;4820;50.870;4.702;2023-05-07T06:09:50;10.70;;;8.93;;
9563;SDS011;4820;50.870;4.702;2023-05-07T06:12:15;9.30;;;8.40;;
9563;SDS011;4820;50.870;4.702;2023-05-07T06:14:44;9.52;;;8.05;;
9563;SDS011;4820;50.870;4.702;2023-05-07T06:17:10;9.38;;;8.40;;
9563;SDS011;4820;50.870;4.702;2023-05-07T06:19:36;8.68;;;7.75;;
9563;SDS011;4820;50.870;4.702;2023-05-07T06:22:01;13.30;;;8.05;;
9563;SDS011;4820;50.870;4.702;2023-05-07T06:24:27;9.73;;;8.02;;
9563;SDS011;4820;50.870;4.702;2023-05-07T06:26:53;9.50;;;8.57;;
9563;SDS011;4820;50.870;4.702;2023-05-07T06:29:19;7.95;;;7.15;;
9563;SDS011;4820;50.870;4.702;2023-05-07T06:31:45;11.13;;;6.95;;
9563;SDS011;4820;50.870;4.702;2023-05-07T06:34:11;8.70;;;6.68;;
9563;SDS011;4820;50.870;4.702;2023-05-07T06:36:39;7.90;;;6.03;;
9563;SDS011;4820;50.870;4.702;2023-05-07T06:39:05;8.98;;;5.90;;
9563;SDS011;4820;50.870;4.702;2023-05-07T06:41:31;7.68;;;6.22;;
9563;SDS011;4820;50.870;4.702;2023-05-07T06:43:57;7.43;;;6.57;;
9563;SDS011;4820;50.870;4.702;2023-05-07T06:46:23;8.77;;;5.63;;
9563;SDS011;4820;50.870;4.702;2023-05-07T06:48:48;9.10;;;5.47;;
9563;SDS011;4820;50.870;4.702;2023-05-07T06:51:14;7.38;;;5.97;;
9563;SDS011;4820;50.870;4.702;2023-05-07T06:53:40;9.73;;;6.07;;
9563;SDS011;4820;50.870;4.702;2023-05-07T06:56:05;7.05;;;6.35;;
9563;SDS011;4820;50.870;4.702;2023-05-07T06:58:31;8.65;;;5.72;;
9563;SDS011;4820;50.870;4.702;2023-05-07T07:00:57;7.78;;;6.18;;
9563;SDS011;4820;50.870;4.702;2023-05-07T07:03:23;9.18;;;5.80;;
9563;SDS011;4820;50.870;4.702;2023-05-07T07:05:51;8.15;;;6.07;;
9563;SDS011;4820;50.870;4.702;2023-05-07T07:08:18;9.18;;;6.03;;
9563;SDS011;4820;50.870;4.702;2023-05-07T07:10:46;7.60;;;5.10;;
9563;SDS011;4820;50.870;4.702;2023-05-07T07:13:12;9.30;;;5.20;;
9563;SDS011;4820;50.870;4.702;2023-05-07T07:15:37;8.77;;;6.55;;
9563;SDS011;4820;50.870;4.702;2023-05-07T07:18:03;7.78;;;5.05;;
9563;SDS011;4820;50.870;4.702;2023-05-07T07:20:29;8.23;;;4.75;;
9563;SDS011;4820;50.870;4.702;2023-05-07T07:22:55;7.05;;;4.90;;
9563;SDS011;4820;50.870;4.702;2023-05-07T07:25:20;6.43;;;4.63;;
9563;SDS011;4820;50.870;4.702;2023-05-07T07:27:48;6.88;;;5.05;;
9563;SDS011;4820;50.870;4.702;2023-05-07T07:30:14;9.30;;;4.50;;
9563;SDS011;4820;50.870;4.702;2023-05-07T07:32:40;7.95;;;4.45;;
9563;SDS011;4820;50.870;4.702;2023-05-07T07:35:06;5.72;;;4.10;;
9563;SDS011;4820;50.870;4.702;2023-05-07T07:37:32;8.43;;;4.60;;
9563;SDS011;4820;50.870;4.702;2023-05-07T07:39:57;7.82;;;4.03;;
9563;SDS011;4820;50.870;4.702;2023-05-07T07:42:23;8.52;;;4.35;;
9563;SDS011;4820;50.870;4.702;2023-05-07T07:44:49;5.53;;;4.30;;
9563;SDS011;4820;50.870;4.702;2023-05-07T07:47:15;7.05;;;4.38;;
9563;SDS011;4820;50.870;4.702;2023-05-07T07:49:40;5.60;;;4.05;;
9563;SDS011;4820;50.870;4.702;2023-05-07T07:52:06;6.72;;;3.95;;
9563;SDS011;4820;50.870;4.702;2023-05-07T07:54:32;5.65;;;3.30;;
9563;SDS011;4820;50.870;4.702;2023-05-07T07:56:58;5.20;;;3.67;;
9563;SDS011;4820;50.870;4.702;2023-05-07T07:59:25;4.40;;;3.15;;
9563;SDS011;4820;50.870;4.702;2023-05-07T08:01:51;4.38;;;2.90;;
9563;SDS011;4820;50.870;4.702;2023-05-07T08:04:19;7.90;;;3.00;;
9563;SDS011;4820;50.870;4.702;2023-05-07T08:06:45;6.15;;;3.08;;
9563;SDS011;4820;50.870;4.702;2023-05-07T08:09:11;4.30;;;2.92;;
9563;SDS011;4820;50.870;4.702;2023-05-07T08:11:36;5.25;;;3.17;;
9563;SDS011;4820;50.870;4.702;2023-05-07T08:14:02;4.90;;;2.97;;
9563;SDS011;4820;50.870;4.702;2023-05-07T08:16:28;16.85;;;15.00;;
9563;SDS011;4820;50.870;4.702;2023-05-07T08:18:54;6.70;;;3.30;;
9563;SDS011;4820;50.870;4.702;2023-05-07T08:21:19;5.22;;;3.08;;
9563;SDS011;4820;50.870;4.702;2023-05-07T08:23:45;5.03;;;3.50;;
9563;SDS011;4820;50.870;4.702;2023-05-07T08:26:11;6.30;;;3.42;;
9563;SDS011;4820;50.870;4.702;2023-05-07T08:28:36;6.10;;;3.55;;
9563;SDS011;4820;50.870;4.702;2023-05-07T08:31:02;8.32;;;3.58;;
9563;SDS011;4820;50.870;4.702;2023-05-07T08:33:28;6.68;;;3.60;;
9563;SDS011;4820;50.870;4.702;2023-05-07T08:35:53;6.40;;;3.83;;
9563;SDS011;4820;50.870;4.702;2023-05-07T08:38:19;6.93;;;3.40;;
9563;SDS011;4820;50.870;4.702;2023-05-07T08:40:45;5.75;;;3.45;;
9563;SDS011;4820;50.870;4.702;2023-05-07T08:43:15;5.78;;;3.30;;
9563;SDS011;4820;50.870;4.702;2023-05-07T08:45:41;6.13;;;3.35;;
9563;SDS011;4820;50.870;4.702;2023-05-07T08:48:17;5.68;;;3.60;;
9563;SDS011;4820;50.870;4.702;2023-05-07T08:50:44;6.20;;;3.65;;
9563;SDS011;4820;50.870;4.702;2023-05-07T08:53:10;4.40;;;3.25;;
9563;SDS011;4820;50.870;4.702;2023-05-07T08:55:37;6.50;;;3.58;;
9563;SDS011;4820;50.870;4.702;2023-05-07T08:58:03;5.63;;;3.20;;
9563;SDS011;4820;50.870;4.702;2023-05-07T09:00:28;6.38;;;3.33;;
9563;SDS011;4820;50.870;4.702;2023-05-07T09:02:55;6.75;;;3.22;;
9563;SDS011;4820;50.870;4.702;2023-05-07T09:05:21;4.50;;;3.28;;
9563;SDS011;4820;50.870;4.702;2023-05-07T09:07:47;5.32;;;3.30;;
9563;SDS011;4820;50.870;4.702;2023-05-07T09:10:13;5.25;;;3.28;;
9563;SDS011;4820;50.870;4.702;2023-05-07T09:12:39;6.50;;;3.35;;
9563;SDS011;4820;50.870;4.702;2023-05-07T09:15:05;3.70;;;3.00;;
9563;SDS011;4820;50.870;4.702;2023-05-07T09:17:31;6.88;;;3.80;;
9563;SDS011;4820;50.870;4.702;2023-05-07T09:20:06;8.23;;;3.63;;
9563;SDS011;4820;50.870;4.702;2023-05-07T09:22:32;5.13;;;3.30;;
9563;SDS011;4820;50.870;4.702;2023-05-07T09:24:58;3.88;;;3.05;;
9563;SDS011;4820;50.870;4.702;2023-05-07T09:27:24;5.22;;;3.42;;
9563;SDS011;4820;50.870;4.702;2023-05-07T09:29:51;6.07;;;3.50;;
9563;SDS011;4820;50.870;4.702;2023-05-07T09:32:17;4.55;;;3.10;;
9563;SDS011;4820;50.870;4.702;2023-05-07T09:34:42;6.40;;;3.63;;
9563;SDS011;4820;50.870;4.702;2023-05-07T09:37:08;6.38;;;3.15;;
9563;SDS011;4820;50.870;4.702;2023-05-07T09:39:41;5.93;;;4.00;;
9563;SDS011;4820;50.870;4.702;2023-05-07T09:42:08;5.68;;;3.42;;
9563;SDS011;4820;50.870;4.702;2023-05-07T09:44:35;6.07;;;3.88;;
9563;SDS011;4820;50.870;4.702;2023-05-07T09:47:01;4.25;;;3.13;;
9563;SDS011;4820;50.870;4.702;2023-05-07T09:49:30;4.68;;;3.53;;
9563;SDS011;4820;50.870;4.702;2023-05-07T09:52:03;5.30;;;3.22;;
9563;SDS011;4820;50.870;4.702;2023-05-07T09:54:35;9.43;;;8.13;;
9563;SDS011;4820;50.870;4.702;2023-05-07T09:57:04;15.70;;;12.75;;
9563;SDS011;4820;50.870;4.702;2023-05-07T09:59:32;7.90;;;6.50;;
9563;SDS011;4820;50.870;4.702;2023-05-07T10:01:58;5.15;;;3.60;;
9563;SDS011;4820;50.870;4.702;2023-05-07T10:04:25;5.38;;;3.50;;
9563;SDS011;4820;50.870;4.702;2023-05-07T10:06:52;5.57;;;3.83;;
9563;SDS011;4820;50.870;4.702;2023-05-07T10:09:18;3.88;;;3.05;;
9563;SDS011;4820;50.870;4.702;2023-05-07T10:11:45;5.00;;;3.05;;
9563;SDS011;4820;50.870;4.702;2023-05-07T10:14:13;3.83;;;3.03;;
9563;SDS011;4820;50.870;4.702;2023-05-07T10:16:39;6.22;;;3.38;;
9563;SDS011;4820;50.870;4.702;2023-05-07T10:19:06;4.25;;;3.10;;
9563;SDS011;4820;50.870;4.702;2023-05-07T10:21:37;4.75;;;3.15;;
9563;SDS011;4820;50.870;4.702;2023-05-07T10:24:04;5.28;;;3.05;;
9563;SDS011;4820;50.870;4.702;2023-05-07T10:26:35;4.93;;;3.35;;
9563;SDS011;4820;50.870;4.702;2023-05-07T10:29:04;5.03;;;3.35;;
9563;SDS011;4820;50.870;4.702;2023-05-07T10:34:13;6.28;;;4.85;;
9563;SDS011;4820;50.870;4.702;2023-05-07T10:36:42;7.85;;;4.40;;
9563;SDS011;4820;50.870;4.702;2023-05-07T10:39:09;6.97;;;3.67;;
9563;SDS011;4820;50.870;4.702;2023-05-07T10:41:35;6.38;;;3.80;;
9563;SDS011;4820;50.870;4.702;2023-05-07T10:44:01;5.63;;;3.60;;
9563;SDS011;4820;50.870;4.702;2023-05-07T10:46:28;5.35;;;3.80;;
9563;SDS011;4820;50.870;4.702;2023-05-07T10:51:26;5.65;;;3.03;;
9563;SDS011;4820;50.870;4.702;2023-05-07T10:56:37;5.43;;;3.35;;
9563;SDS011;4820;50.870;4.702;2023-05-07T11:02:00;4.50;;;3.30;;
9563;SDS011;4820;50.870;4.702;2023-05-07T11:04:28;4.60;;;3.22;;
9563;SDS011;4820;50.870;4.702;2023-05-07T11:15:04;4.28;;;2.35;;
9563;SDS011;4820;50.870;4.702;2023-05-07T11:17:32;4.15;;;2.40;;
9563;SDS011;4820;50.870;4.702;2023-05-07T11:20:00;4.28;;;2.20;;
9563;SDS011;4820;50.870;4.702;2023-05-07T11:24:57;4.90;;;2.42;;
9563;SDS011;4820;50.870;4.702;2023-05-07T11:27:28;5.15;;;2.30;;
9563;SDS011;4820;50.870;4.702;2023-05-07T11:29:54;4.53;;;2.35;;
9563;SDS011;4820;50.870;4.702;2023-05-07T11:32:23;4.72;;;2.08;;
9563;SDS011;4820;50.870;4.702;2023-05-07T11:34:57;4.47;;;2.28;;
9563;SDS011;4820;50.870;4.702;2023-05-07T11:37:24;3.97;;;2.15;;
9563;SDS011;4820;50.870;4.702;2023-05-07T11:39:51;4.80;;;2.55;;
9563;SDS011;4820;50.870;4.702;2023-05-07T11:42:35;4.05;;;2.30;;
9563;SDS011;4820;50.870;4.702;2023-05-07T11:45:02;4.38;;;2.50;;
9563;SDS011;4820;50.870;4.702;2023-05-07T11:47:32;4.30;;;2.28;;
9563;SDS011;4820;50.870;4.702;2023-05-07T11:50:02;3.95;;;2.20;;
9563;SDS011;4820;50.870;4.702;2023-05-07T11:52:29;3.35;;;2.13;;
9563;SDS011;4820;50.870;4.702;2023-05-07T11:54:56;4.40;;;2.53;;
9563;SDS011;4820;50.870;4.702;2023-05-07T11:57:26;4.82;;;2.50;;
9563;SDS011;4820;50.870;4.702;2023-05-07T11:59:53;3.80;;;2.10;;
9563;SDS011;4820;50.870;4.702;2023-05-07T12:02:19;3.72;;;2.10;;
9563;SDS011;4820;50.870;4.702;2023-05-07T12:04:45;4.22;;;2.30;;
9563;SDS011;4820;50.870;4.702;2023-05-07T12:07:14;3.05;;;1.95;;
9563;SDS011;4820;50.870;4.702;2023-05-07T12:09:41;4.40;;;1.88;;
9563;SDS011;4820;50.870;4.702;2023-05-07T12:12:07;3.40;;;1.92;;
9563;SDS011;4820;50.870;4.702;2023-05-07T12:14:37;5.25;;;2.00;;
9563;SDS011;4820;50.870;4.702;2023-05-07T12:17:10;3.78;;;2.10;;
9563;SDS011;4820;50.870;4.702;2023-05-07T12:19:39;3.78;;;2.05;;
9563;SDS011;4820;50.870;4.702;2023-05-07T12:22:09;3.45;;;1.70;;
9563;SDS011;4820;50.870;4.702;2023-05-07T12:24:48;2.53;;;1.80;;
9563;SDS011;4820;50.870;4.702;2023-05-07T12:27:15;3.05;;;2.05;;
9563;SDS011;4820;50.870;4.702;2023-05-07T12:29:49;2.83;;;1.90;;
9563;SDS011;4820;50.870;4.702;2023-05-07T12:32:21;3.30;;;2.00;;
9563;SDS011;4820;50.870;4.702;2023-05-07T12:34:50;2.97;;;1.80;;
9563;SDS011;4820;50.870;4.702;2023-05-07T12:37:17;3.65;;;2.10;;
9563;SDS011;4820;50.870;4.702;2023-05-07T12:42:35;3.25;;;2.13;;
9563;SDS011;4820;50.870;4.702;2023-05-07T12:45:11;3.17;;;1.90;;
9563;SDS011;4820;50.870;4.702;2023-05-07T12:47:44;3.35;;;1.98;;
9563;SDS011;4820;50.870;4.702;2023-05-07T12:50:10;2.53;;;1.83;;
9563;SDS011;4820;50.870;4.702;2023-05-07T12:52:36;3.42;;;2.15;;
9563;SDS011;4820;50.870;4.702;2023-05-07T12:55:06;3.53;;;2.03;;
9563;SDS011;4820;50.870;4.702;2023-05-07T12:57:39;4.38;;;2.35;;
9563;SDS011;4820;50.870;4.702;2023-05-07T13:00:09;4.47;;;2.30;;
9563;SDS011;4820;50.870;4.702;2023-05-07T13:02:39;4.45;;;2.10;;
9563;SDS011;4820;50.870;4.702;2023-05-07T13:05:06;2.20;;;1.80;;
9563;SDS011;4820;50.870;4.702;2023-05-07T13:07:33;13.32;;;9.77;;
9563;SDS011;4820;50.870;4.702;2023-05-07T13:09:59;4.07;;;2.30;;
9563;SDS011;4820;50.870;4.702;2023-05-07T13:12:25;4.70;;;2.42;;
9563;SDS011;4820;50.870;4.702;2023-05-07T13:14:50;3.53;;;2.10;;
9563;SDS011;4820;50.870;4.702;2023-05-07T13:17:16;3.20;;;1.95;;
9563;SDS011;4820;50.870;4.702;2023-05-07T13:19:43;3.95;;;2.00;;
9563;SDS011;4820;50.870;4.702;2023-05-07T13:22:09;2.90;;;1.90;;
9563;SDS011;4820;50.870;4.702;2023-05-07T13:24:35;3.55;;;1.95;;
9563;SDS011;4820;50.870;4.702;2023-05-07T13:27:01;2.97;;;1.80;;
9563;SDS011;4820;50.870;4.702;2023-05-07T13:29:27;3.05;;;1.80;;
9563;SDS011;4820;50.870;4.702;2023-05-07T13:31:58;2.30;;;1.58;;
9563;SDS011;4820;50.870;4.702;2023-05-07T13:34:24;4.70;;;1.90;;
9563;SDS011;4820;50.870;4.702;2023-05-07T13:36:50;2.85;;;2.00;;
9563;SDS011;4820;50.870;4.702;2023-05-07T13:39:17;5.38;;;2.20;;
9563;SDS011;4820;50.870;4.702;2023-05-07T13:41:43;4.82;;;2.20;;
9563;SDS011;4820;50.870;4.702;2023-05-07T13:44:08;4.20;;;2.28;;
9563;SDS011;4820;50.870;4.702;2023-05-07T13:46:35;4.40;;;2.25;;
9563;SDS011;4820;50.870;4.702;2023-05-07T13:49:00;2.97;;;2.10;;
9563;SDS011;4820;50.870;4.702;2023-05-07T13:51:26;3.45;;;2.47;;
9563;SDS011;4820;50.870;4.702;2023-05-07T13:53:52;4.68;;;2.38;;
9563;SDS011;4820;50.870;4.702;2023-05-07T13:56:19;3.28;;;2.40;;
9563;SDS011;4820;50.870;4.702;2023-05-07T13:58:46;3.25;;;2.08;;
9563;SDS011;4820;50.870;4.702;2023-05-07T14:01:11;4.50;;;2.40;;
9563;SDS011;4820;50.870;4.702;2023-05-07T14:03:37;2.88;;;2.22;;
9563;SDS011;4820;50.870;4.702;2023-05-07T14:06:04;3.70;;;2.30;;
9563;SDS011;4820;50.870;4.702;2023-05-07T14:08:30;2.85;;;2.03;;
9563;SDS011;4820;50.870;4.702;2023-05-07T14:10:56;3.20;;;2.25;;
9563;SDS011;4820;50.870;4.702;2023-05-07T14:13:21;3.08;;;2.38;;
9563;SDS011;4820;50.870;4.702;2023-05-07T14:15:47;4.45;;;2.40;;
9563;SDS011;4820;50.870;4.702;2023-05-07T14:18:14;3.60;;;2.28;;
9563;SDS011;4820;50.870;4.702;2023-05-07T14:20:40;3.47;;;2.22;;
9563;SDS011;4820;50.870;4.702;2023-05-07T14:23:08;4.00;;;2.42;;
9563;SDS011;4820;50.870;4.702;2023-05-07T14:25:34;3.70;;;2.40;;
9563;SDS011;4820;50.870;4.702;2023-05-07T14:28:00;4.05;;;2.75;;
9563;SDS011;4820;50.870;4.702;2023-05-07T14:30:25;3.70;;;2.10;;
9563;SDS011;4820;50.870;4.702;2023-05-07T14:32:51;3.72;;;2.50;;
9563;SDS011;4820;50.870;4.702;2023-05-07T14:35:17;3.92;;;2.45;;
9563;SDS011;4820;50.870;4.702;2023-05-07T14:37:43;3.20;;;2.70;;
9563;SDS011;4820;50.870;4.702;2023-05-07T14:40:08;3.47;;;2.38;;
9563;SDS011;4820;50.870;4.702;2023-05-07T14:42:34;3.35;;;2.20;;
9563;SDS011;4820;50.870;4.702;2023-05-07T14:45:01;4.93;;;2.63;;
9563;SDS011;4820;50.870;4.702;2023-05-07T14:47:27;3.08;;;2.40;;
9563;SDS011;4820;50.870;4.702;2023-05-07T14:49:53;2.30;;;2.10;;
9563;SDS011;4820;50.870;4.702;2023-05-07T14:52:19;3.17;;;2.38;;
9563;SDS011;4820;50.870;4.702;2023-05-07T14:54:45;4.00;;;2.40;;
9563;SDS011;4820;50.870;4.702;2023-05-07T14:57:11;3.45;;;2.42;;
9563;SDS011;4820;50.870;4.702;2023-05-07T14:59:39;2.95;;;2.55;;
9563;SDS011;4820;50.870;4.702;2023-05-07T15:02:06;3.08;;;2.33;;
9563;SDS011;4820;50.870;4.702;2023-05-07T15:04:33;3.65;;;2.35;;
9563;SDS011;4820;50.870;4.702;2023-05-07T15:06:59;2.97;;;2.17;;
9563;SDS011;4820;50.870;4.702;2023-05-07T15:09:25;2.72;;;2.40;;
9563;SDS011;4820;50.870;4.702;2023-05-07T15:11:51;3.30;;;2.40;;
9563;SDS011;4820;50.870;4.702;2023-05-07T15:14:17;3.70;;;2.63;;
9563;SDS011;4820;50.870;4.702;2023-05-07T15:16:43;3.38;;;2.78;;
9563;SDS011;4820;50.870;4.702;2023-05-07T15:19:08;2.72;;;2.25;;
9563;SDS011;4820;50.870;4.702;2023-05-07T15:21:34;3.63;;;2.33;;
9563;SDS011;4820;50.870;4.702;2023-05-07T15:24:01;2.50;;;2.28;;
9563;SDS011;4820;50.870;4.702;2023-05-07T15:26:27;3.00;;;2.50;;
9563;SDS011;4820;50.870;4.702;2023-05-07T15:28:53;3.38;;;2.40;;
9563;SDS011;4820;50.870;4.702;2023-05-07T15:31:21;2.92;;;2.58;;
9563;SDS011;4820;50.870;4.702;2023-05-07T15:33:47;2.90;;;2.60;;
9563;SDS011;4820;50.870;4.702;2023-05-07T15:36:13;3.65;;;2.50;;